createdAt,value
2023-02-13T00:00:22.200Z,42.60
2023-02-13T00:02:48.632Z,42.60
2023-02-13T00:05:15.051Z,43.53
2023-02-13T00:07:41.425Z,43.61
2023-02-13T00:10:07.816Z,43.14
2023-02-13T00:12:34.213Z,44.51
2023-02-13T00:15:00.617Z,43.21
2023-02-13T00:17:27.016Z,43.36
2023-02-13T00:19:53.389Z,45.28
2023-02-13T00:22:19.797Z,47.35
2023-02-13T00:24:46.309Z,47.81
2023-02-13T00:27:12.714Z,50.96
2023-02-13T00:29:39.130Z,48.81
2023-02-13T00:32:05.630Z,46.88
2023-02-13T00:34:32.107Z,47.90
2023-02-13T00:36:58.494Z,49.22
2023-02-13T00:39:24.898Z,48.73
2023-02-13T00:41:51.334Z,47.20
2023-02-13T00:44:17.748Z,47.34
2023-02-13T00:46:44.273Z,47.06
2023-02-13T00:49:10.736Z,47.11
2023-02-13T00:51:38.546Z,47.96
2023-02-13T00:54:04.975Z,48.32
2023-02-13T00:56:31.364Z,48.50
2023-02-13T00:58:57.742Z,48.93
2023-02-13T01:01:24.186Z,47.82
2023-02-13T01:03:50.646Z,47.12
2023-02-13T01:06:17.105Z,47.13
2023-02-13T01:08:43.515Z,46.56
2023-02-13T01:11:09.896Z,47.14
2023-02-13T01:13:36.307Z,45.60
2023-02-13T01:16:02.759Z,46.59
2023-02-13T01:18:29.153Z,48.50
2023-02-13T01:20:55.837Z,49.25
2023-02-13T01:23:22.458Z,49.20
2023-02-13T01:25:48.861Z,48.96
2023-02-13T01:28:15.277Z,48.91
2023-02-13T01:30:41.710Z,48.81
2023-02-13T01:33:08.209Z,49.30
2023-02-13T01:35:34.603Z,49.80
2023-02-13T01:38:01.042Z,49.04
2023-02-13T01:40:27.422Z,48.78
2023-02-13T01:42:53.864Z,49.48
2023-02-13T01:45:20.338Z,48.49
2023-02-13T01:47:46.715Z,49.03
2023-02-13T01:50:13.115Z,49.84
2023-02-13T01:52:39.531Z,49.07
2023-02-13T01:55:05.940Z,48.64
2023-02-13T01:57:32.361Z,50.09
2023-02-13T01:59:58.742Z,50.10
2023-02-13T02:02:25.255Z,49.27
2023-02-13T02:04:51.686Z,48.48
2023-02-13T02:07:18.074Z,49.56
2023-02-13T02:09:44.456Z,50.43
2023-02-13T02:12:10.867Z,50.52
2023-02-13T02:14:37.293Z,50.88
2023-02-13T02:17:03.696Z,51.00
2023-02-13T02:19:30.111Z,50.08
2023-02-13T02:21:56.499Z,50.63
2023-02-13T02:24:22.929Z,49.26
2023-02-13T02:26:49.331Z,48.74
2023-02-13T02:29:15.768Z,50.03
2023-02-13T02:31:42.208Z,49.87
2023-02-13T02:34:08.636Z,50.22
2023-02-13T02:36:35.014Z,50.42
2023-02-13T02:39:01.383Z,49.53
2023-02-13T02:41:27.794Z,49.47
2023-02-13T02:43:54.161Z,49.60
2023-02-13T02:46:20.556Z,50.70
2023-02-13T02:48:46.958Z,50.24
2023-02-13T02:51:13.347Z,50.86
2023-02-13T02:53:39.748Z,51.59
2023-02-13T02:56:06.144Z,50.86
2023-02-13T02:58:32.530Z,49.79
2023-02-13T03:00:59.215Z,49.19
2023-02-13T03:03:25.823Z,50.97
2023-02-13T03:05:52.204Z,50.27
2023-02-13T03:08:18.628Z,50.07
2023-02-13T03:10:45.063Z,50.32
2023-02-13T03:13:11.513Z,50.73
2023-02-13T03:15:37.895Z,50.22
2023-02-13T03:18:04.281Z,51.10
2023-02-13T03:20:30.674Z,50.78
2023-02-13T03:22:57.070Z,50.43
2023-02-13T03:25:23.485Z,50.74
2023-02-13T03:27:49.880Z,49.26
2023-02-13T03:30:16.261Z,50.62
2023-02-13T03:32:42.665Z,50.50
2023-02-13T03:35:09.066Z,51.67
2023-02-13T03:37:35.459Z,50.67
2023-02-13T03:40:02.040Z,49.87
2023-02-13T03:42:29.207Z,49.46
2023-02-13T03:44:56.418Z,49.54
2023-02-13T03:47:22.838Z,48.52
2023-02-13T03:49:49.317Z,49.26
2023-02-13T03:52:16.297Z,50.11
2023-02-13T03:54:42.670Z,49.16
2023-02-13T03:57:09.100Z,49.79
2023-02-13T03:59:35.512Z,49.63
2023-02-13T04:02:02.940Z,49.14
2023-02-13T04:04:29.413Z,49.34
2023-02-13T04:06:55.827Z,49.59
2023-02-13T04:09:22.272Z,49.95
2023-02-13T04:11:48.679Z,49.92
2023-02-13T04:14:15.128Z,48.78
2023-02-13T04:16:41.588Z,48.95
2023-02-13T04:19:07.991Z,48.95
2023-02-13T04:21:34.359Z,48.91
2023-02-13T04:24:00.828Z,48.81
2023-02-13T04:26:27.205Z,48.47
2023-02-13T04:28:53.609Z,49.07
2023-02-13T04:31:20.049Z,48.91
2023-02-13T04:33:46.531Z,49.10
2023-02-13T04:36:12.942Z,48.96
2023-02-13T04:38:39.343Z,48.46
2023-02-13T04:41:05.758Z,48.74
2023-02-13T04:43:32.133Z,49.91
2023-02-13T04:45:58.594Z,50.51
2023-02-13T04:48:24.993Z,48.91
2023-02-13T04:50:51.415Z,50.44
2023-02-13T04:53:17.800Z,50.37
2023-02-13T04:55:44.314Z,49.93
2023-02-13T04:58:10.840Z,49.49
2023-02-13T05:00:37.229Z,49.58
2023-02-13T05:03:03.680Z,50.08
2023-02-13T05:05:30.072Z,49.39
2023-02-13T05:07:56.491Z,49.96
2023-02-13T05:10:22.886Z,49.92
2023-02-13T05:12:49.272Z,51.19
2023-02-13T05:15:15.824Z,50.01
2023-02-13T05:17:42.264Z,49.58
2023-02-13T05:20:08.673Z,51.52
2023-02-13T05:22:35.059Z,51.30
2023-02-13T05:25:01.479Z,50.92
2023-02-13T05:27:27.859Z,52.73
2023-02-13T05:29:54.249Z,53.64
2023-02-13T05:32:20.668Z,51.73
2023-02-13T05:34:47.090Z,51.63
2023-02-13T05:37:13.557Z,52.32
2023-02-13T05:39:39.908Z,51.47
2023-02-13T05:42:06.324Z,51.25
2023-02-13T05:44:32.699Z,51.48
2023-02-13T05:46:59.093Z,51.18
2023-02-13T05:49:25.554Z,52.71
2023-02-13T05:51:51.936Z,50.43
2023-02-13T05:54:18.357Z,52.31
2023-02-13T05:56:44.798Z,51.22
2023-02-13T05:59:11.244Z,50.41
2023-02-13T06:01:38.677Z,50.41
2023-02-13T06:04:05.163Z,50.74
2023-02-13T06:06:31.765Z,51.14
2023-02-13T06:08:58.213Z,51.67
2023-02-13T06:11:24.629Z,52.46
2023-02-13T06:13:51.035Z,52.63
2023-02-13T06:16:17.485Z,52.65
2023-02-13T06:18:43.967Z,52.48
2023-02-13T06:21:11.371Z,55.90
2023-02-13T06:23:37.758Z,58.19
2023-02-13T06:26:04.174Z,57.82
2023-02-13T06:28:30.638Z,59.79
2023-02-13T06:30:57.445Z,61.33
2023-02-13T06:33:24.101Z,62.66
2023-02-13T06:35:50.509Z,63.23
2023-02-13T06:38:16.903Z,65.51
2023-02-13T06:40:43.270Z,65.31
2023-02-13T06:43:09.647Z,64.44
2023-02-13T06:45:36.048Z,61.11
2023-02-13T06:48:02.406Z,60.82
2023-02-13T06:50:28.830Z,59.81
2023-02-13T06:52:55.209Z,58.50
2023-02-13T06:55:21.577Z,58.63
2023-02-13T06:57:47.973Z,56.02
2023-02-13T07:00:14.398Z,55.11
2023-02-13T07:02:40.845Z,54.27
2023-02-13T07:05:07.272Z,54.38
2023-02-13T07:07:33.655Z,53.86
2023-02-13T07:10:00.074Z,51.78
2023-02-13T07:12:26.517Z,52.17
2023-02-13T07:14:52.928Z,51.25
2023-02-13T07:17:19.313Z,51.73
2023-02-13T07:19:45.787Z,51.88
2023-02-13T07:22:12.188Z,51.84
2023-02-13T07:24:38.620Z,51.54
2023-02-13T07:27:05.004Z,53.16
2023-02-13T07:29:31.376Z,52.83
2023-02-13T07:31:57.792Z,51.71
2023-02-13T07:34:24.247Z,53.34
2023-02-13T07:36:50.652Z,53.82
2023-02-13T07:39:17.045Z,54.00
2023-02-13T07:41:43.466Z,55.07
2023-02-13T07:44:09.851Z,53.76
2023-02-13T07:46:36.250Z,54.80
2023-02-13T07:49:02.721Z,55.93
2023-02-13T07:51:29.118Z,57.35
2023-02-13T07:53:56.587Z,57.60
2023-02-13T07:56:23.747Z,57.28
2023-02-13T07:58:50.138Z,56.02
2023-02-13T08:01:16.523Z,56.37
2023-02-13T08:03:42.967Z,56.95
2023-02-13T08:06:10.509Z,55.31
2023-02-13T08:08:36.880Z,50.73
2023-02-13T08:11:03.369Z,50.60
2023-02-13T08:13:29.723Z,54.10
2023-02-13T08:15:56.478Z,53.86
2023-02-13T08:18:23.076Z,54.46
2023-02-13T08:20:51.217Z,53.36
2023-02-13T08:23:17.622Z,53.60
2023-02-13T08:25:44.092Z,52.45
2023-02-13T08:28:10.482Z,52.62
2023-02-13T08:30:36.991Z,51.19
2023-02-13T08:33:03.486Z,53.03
2023-02-13T08:35:29.954Z,54.29
2023-02-13T08:37:56.395Z,55.14
2023-02-13T08:40:24.508Z,57.51
2023-02-13T08:42:52.306Z,56.59
2023-02-13T08:45:18.685Z,57.19
2023-02-13T08:47:45.083Z,57.18
2023-02-13T08:50:11.459Z,58.45
2023-02-13T08:52:37.846Z,58.63
2023-02-13T08:55:04.273Z,57.41
2023-02-13T08:57:30.677Z,58.37
2023-02-13T08:59:57.058Z,58.70
2023-02-13T09:02:23.474Z,57.78
2023-02-13T09:04:49.857Z,57.25
2023-02-13T09:07:16.244Z,58.39
2023-02-13T09:09:42.694Z,58.66
2023-02-13T09:12:09.068Z,59.11
2023-02-13T09:14:35.462Z,60.01
2023-02-13T09:17:01.872Z,59.20
2023-02-13T09:19:28.305Z,60.62
2023-02-13T09:21:54.695Z,59.14
2023-02-13T09:24:21.070Z,59.51
2023-02-13T09:26:47.485Z,59.60
2023-02-13T09:29:13.931Z,59.04
2023-02-13T09:31:40.438Z,59.58
2023-02-13T09:34:06.954Z,58.73
2023-02-13T09:36:33.358Z,57.91
2023-02-13T09:38:59.724Z,58.79
2023-02-13T09:41:26.128Z,58.97
2023-02-13T09:43:52.542Z,57.91
2023-02-13T09:46:18.997Z,58.88
2023-02-13T09:48:45.466Z,58.51
2023-02-13T09:51:11.835Z,58.81
2023-02-13T09:53:38.206Z,58.71
2023-02-13T09:56:04.631Z,57.81
2023-02-13T09:58:31.031Z,59.14
2023-02-13T10:00:57.416Z,57.79
2023-02-13T10:03:23.814Z,58.17
2023-02-13T10:05:50.172Z,58.65
2023-02-13T10:08:16.604Z,58.12
2023-02-13T10:10:45.319Z,57.29
2023-02-13T10:13:11.706Z,56.35
2023-02-13T10:15:38.272Z,55.87
2023-02-13T10:18:04.706Z,54.94
2023-02-13T10:20:31.099Z,54.20
2023-02-13T10:22:57.489Z,53.19
2023-02-13T10:25:23.881Z,53.18
2023-02-13T10:27:50.229Z,53.49
2023-02-13T10:30:16.709Z,53.26
2023-02-13T10:32:43.097Z,51.72
2023-02-13T10:35:09.473Z,51.72
2023-02-13T10:37:35.867Z,50.84
2023-02-13T10:40:02.262Z,51.71
2023-02-13T10:42:28.623Z,51.00
2023-02-13T10:44:55.043Z,50.89
2023-02-13T10:47:21.442Z,51.53
2023-02-13T10:49:47.856Z,51.25
2023-02-13T10:52:14.260Z,50.44
2023-02-13T10:54:40.674Z,51.16
2023-02-13T10:57:07.108Z,51.08
2023-02-13T10:59:33.512Z,50.94
2023-02-13T11:01:59.922Z,50.06
2023-02-13T11:04:26.353Z,50.33
2023-02-13T11:06:52.785Z,48.44
2023-02-13T11:09:19.174Z,48.38
2023-02-13T11:11:45.592Z,47.93
2023-02-13T11:14:11.962Z,47.72
2023-02-13T11:16:38.401Z,46.49
2023-02-13T11:19:04.793Z,47.44
2023-02-13T11:21:31.171Z,48.96
2023-02-13T11:23:57.569Z,47.86
2023-02-13T11:26:23.999Z,49.05
2023-02-13T11:28:50.427Z,49.44
2023-02-13T11:31:16.946Z,47.80
2023-02-13T11:33:43.362Z,48.48
2023-02-13T11:36:09.732Z,46.75
2023-02-13T11:38:36.110Z,48.20
2023-02-13T11:41:02.502Z,48.27
2023-02-13T11:43:28.893Z,47.83
2023-02-13T11:45:55.312Z,48.95
2023-02-13T11:48:21.779Z,48.19
2023-02-13T11:50:48.192Z,48.28
2023-02-13T11:53:14.559Z,49.55
2023-02-13T11:55:40.975Z,48.70
2023-02-13T11:58:07.576Z,47.87
2023-02-13T12:00:35.814Z,47.96
2023-02-13T12:03:02.393Z,48.57
2023-02-13T12:05:28.813Z,48.17
2023-02-13T12:07:55.196Z,47.36
2023-02-13T12:10:21.575Z,46.79
2023-02-13T12:12:47.984Z,47.59
2023-02-13T12:15:14.380Z,46.98
2023-02-13T12:17:40.772Z,47.04
2023-02-13T12:20:07.178Z,47.76
2023-02-13T12:22:35.079Z,47.58
2023-02-13T12:25:01.611Z,47.15
2023-02-13T12:27:28.041Z,48.57
2023-02-13T12:29:54.406Z,48.37
2023-02-13T12:32:20.775Z,48.22
2023-02-13T12:34:47.164Z,47.63
2023-02-13T12:37:13.562Z,49.29
2023-02-13T12:39:39.930Z,49.15
2023-02-13T12:42:06.312Z,48.03
2023-02-13T12:44:32.812Z,49.76
2023-02-13T12:46:59.238Z,49.65
2023-02-13T12:49:25.633Z,49.63
2023-02-13T12:51:52.143Z,49.36
2023-02-13T12:54:18.531Z,49.35
2023-02-13T12:56:44.905Z,49.39
2023-02-13T12:59:11.300Z,48.37
2023-02-13T13:01:37.729Z,49.70
2023-02-13T13:04:04.168Z,49.33
2023-02-13T13:06:30.571Z,48.93
2023-02-13T13:08:56.964Z,49.81
2023-02-13T13:11:23.373Z,49.81
2023-02-13T13:13:49.754Z,49.09
2023-02-13T13:16:17.035Z,49.52
2023-02-13T13:18:43.595Z,49.62
2023-02-13T13:21:09.998Z,49.12
2023-02-13T13:23:36.401Z,48.80
2023-02-13T13:26:02.836Z,48.12
2023-02-13T13:28:29.227Z,47.84
2023-02-13T13:30:55.773Z,46.67
2023-02-13T13:33:22.221Z,48.00
2023-02-13T13:35:48.653Z,46.48
2023-02-13T13:38:15.068Z,46.15
2023-02-13T13:40:41.470Z,45.42
2023-02-13T13:43:07.861Z,46.37
2023-02-13T13:45:34.261Z,45.50
2023-02-13T13:48:00.684Z,45.94
2023-02-13T13:50:27.067Z,45.25
2023-02-13T13:52:53.480Z,45.20
2023-02-13T13:55:19.946Z,45.71
2023-02-13T13:57:46.327Z,45.31
2023-02-13T14:00:14.391Z,44.64
2023-02-13T14:02:41.116Z,44.80
2023-02-13T14:05:07.511Z,45.24
2023-02-13T14:07:33.888Z,43.92
2023-02-13T14:10:00.312Z,44.93
2023-02-13T14:12:26.700Z,44.64
2023-02-13T14:14:53.145Z,43.63
2023-02-13T14:17:19.568Z,43.27
2023-02-13T14:19:45.950Z,43.19
2023-02-13T14:22:12.363Z,43.82
2023-02-13T14:24:38.768Z,42.81
2023-02-13T14:27:06.433Z,42.97
2023-02-13T14:29:32.909Z,43.27
2023-02-13T14:31:59.413Z,42.23
2023-02-13T14:34:25.834Z,42.07
2023-02-13T14:36:52.238Z,42.73
2023-02-13T14:39:18.615Z,42.36
2023-02-13T14:41:45.021Z,41.99
2023-02-13T14:44:11.422Z,41.02
2023-02-13T14:46:37.995Z,41.47
2023-02-13T14:49:04.491Z,40.52
2023-02-13T14:51:30.856Z,40.86
2023-02-13T14:53:57.254Z,41.45
2023-02-13T14:56:23.644Z,40.49
2023-02-13T14:58:50.023Z,41.17
2023-02-13T15:01:16.414Z,40.60
2023-02-13T15:03:42.829Z,40.84
2023-02-13T15:06:09.213Z,41.31
2023-02-13T15:08:35.629Z,40.71
2023-02-13T15:11:02.018Z,41.25
2023-02-13T15:13:29.486Z,40.95
2023-02-13T15:15:55.911Z,40.06
2023-02-13T15:18:22.347Z,40.50
2023-02-13T15:20:48.766Z,38.99
2023-02-13T15:23:15.171Z,40.89
2023-02-13T15:25:41.583Z,40.95
2023-02-13T15:28:08.029Z,39.52
2023-02-13T15:30:34.438Z,40.67
2023-02-13T15:33:00.883Z,39.67
2023-02-13T15:35:27.399Z,39.60
2023-02-13T15:37:53.765Z,39.41
2023-02-13T15:40:20.179Z,39.21
2023-02-13T15:42:46.551Z,39.51
2023-02-13T15:45:12.955Z,39.83
2023-02-13T15:47:39.324Z,40.00
2023-02-13T15:50:05.694Z,40.49
2023-02-13T15:52:32.104Z,39.64
2023-02-13T15:54:58.543Z,38.72
2023-02-13T15:57:25.126Z,38.04
2023-02-13T15:59:51.577Z,39.26
2023-02-13T16:02:17.947Z,38.57
2023-02-13T16:04:44.401Z,40.34
2023-02-13T16:07:10.827Z,41.04
2023-02-13T16:09:37.220Z,39.36
2023-02-13T16:12:03.631Z,38.25
2023-02-13T16:14:30.025Z,39.26
2023-02-13T16:16:56.390Z,39.95
2023-02-13T16:19:22.760Z,40.16
2023-02-13T16:21:49.160Z,39.05
2023-02-13T16:24:15.541Z,39.38
2023-02-13T16:26:41.926Z,39.31
2023-02-13T16:29:08.302Z,40.93
2023-02-13T16:31:34.856Z,41.09
2023-02-13T16:34:01.265Z,42.08
2023-02-13T16:36:27.668Z,41.06
2023-02-13T16:38:54.088Z,42.39
2023-02-13T16:41:20.513Z,41.84
2023-02-13T16:43:46.913Z,41.35
2023-02-13T16:46:13.431Z,42.17
2023-02-13T16:48:39.895Z,43.71
2023-02-13T16:51:06.271Z,42.11
2023-02-13T16:53:34.289Z,43.52
2023-02-13T16:56:00.809Z,43.57
2023-02-13T16:58:27.190Z,43.68
2023-02-13T17:00:53.567Z,43.98
2023-02-13T17:03:20.051Z,43.54
2023-02-13T17:05:46.436Z,44.56
2023-02-13T17:08:12.808Z,45.14
2023-02-13T17:10:39.238Z,44.94
2023-02-13T17:13:05.611Z,45.74
2023-02-13T17:15:32.001Z,44.86
2023-02-13T17:17:58.416Z,44.51
2023-02-13T17:20:24.804Z,45.22
2023-02-13T17:22:51.215Z,46.12
2023-02-13T17:25:17.580Z,46.24
2023-02-13T17:27:43.965Z,45.73
2023-02-13T17:30:10.363Z,46.37
2023-02-13T17:32:36.746Z,46.06
2023-02-13T17:35:03.102Z,45.51
2023-02-13T17:37:29.499Z,45.54
2023-02-13T17:39:56.148Z,46.04
2023-02-13T17:42:22.548Z,45.81
2023-02-13T17:44:48.932Z,44.73
2023-02-13T17:47:15.357Z,44.71
2023-02-13T17:49:41.797Z,45.79
2023-02-13T17:52:08.191Z,47.12
2023-02-13T17:54:34.572Z,45.42
2023-02-13T17:57:00.929Z,45.04
2023-02-13T17:59:27.499Z,44.81
2023-02-13T18:01:53.952Z,45.06
2023-02-13T18:04:20.487Z,47.10
2023-02-13T18:06:46.885Z,46.00
2023-02-13T18:09:13.262Z,47.08
2023-02-13T18:11:39.630Z,46.66
2023-02-13T18:14:06.063Z,46.25
2023-02-13T18:16:32.437Z,45.87
2023-02-13T18:18:58.809Z,46.38
2023-02-13T18:21:25.231Z,46.08
2023-02-13T18:23:51.601Z,46.41
2023-02-13T18:26:18.027Z,47.62
2023-02-13T18:28:44.390Z,48.17
2023-02-13T18:31:10.858Z,47.89
2023-02-13T18:33:37.338Z,47.95
2023-02-13T18:36:03.713Z,45.96
2023-02-13T18:38:30.121Z,45.09
2023-02-13T18:40:56.722Z,44.80
2023-02-13T18:43:23.304Z,42.96
2023-02-13T18:45:49.705Z,43.65
2023-02-13T18:48:16.067Z,43.72
2023-02-13T18:50:42.460Z,43.93
2023-02-13T18:53:08.836Z,42.71
2023-02-13T18:55:35.256Z,43.28
2023-02-13T18:58:01.646Z,42.51
2023-02-13T19:00:28.010Z,43.91
2023-02-13T19:02:54.512Z,45.23
2023-02-13T19:05:20.948Z,46.39
2023-02-13T19:07:47.348Z,46.88
2023-02-13T19:10:13.701Z,47.30
2023-02-13T19:12:40.075Z,45.62
2023-02-13T19:15:06.448Z,44.13
2023-02-13T19:17:32.809Z,44.02
2023-02-13T19:19:59.181Z,43.13
2023-02-13T19:22:25.544Z,43.68
2023-02-13T19:24:51.921Z,43.05
2023-02-13T19:27:18.361Z,43.16
2023-02-13T19:29:44.751Z,43.02
2023-02-13T19:32:11.158Z,41.87
2023-02-13T19:34:37.604Z,41.67
2023-02-13T19:37:04.040Z,41.39
2023-02-13T19:39:30.423Z,41.50
2023-02-13T19:41:56.801Z,41.49
2023-02-13T19:44:23.200Z,42.92
2023-02-13T19:46:49.673Z,42.65
2023-02-13T19:49:16.160Z,42.62
2023-02-13T19:51:42.558Z,45.07
2023-02-13T19:54:08.928Z,44.30
2023-02-13T19:56:35.337Z,43.69
2023-02-13T19:59:01.777Z,42.65
2023-02-13T20:01:28.197Z,43.77
2023-02-13T20:03:54.692Z,43.36
2023-02-13T20:06:21.089Z,44.01
2023-02-13T20:08:47.492Z,44.12
2023-02-13T20:11:13.890Z,44.90
2023-02-13T20:13:40.316Z,45.31
2023-02-13T20:16:06.771Z,45.77
2023-02-13T20:18:33.204Z,46.54
2023-02-13T20:20:59.926Z,47.78
2023-02-13T20:23:26.553Z,45.88
2023-02-13T20:25:52.958Z,46.62
2023-02-13T20:28:19.337Z,45.33
2023-02-13T20:30:45.813Z,46.07
2023-02-13T20:33:12.270Z,46.44
2023-02-13T20:35:38.708Z,44.53
2023-02-13T20:38:05.107Z,45.31
2023-02-13T20:40:31.481Z,46.38
2023-02-13T20:42:57.890Z,45.72
2023-02-13T20:45:24.359Z,45.64
2023-02-13T20:47:50.862Z,44.57
2023-02-13T20:50:17.228Z,45.34
2023-02-13T20:52:43.640Z,44.99
2023-02-13T20:55:10.068Z,45.36
2023-02-13T20:57:36.465Z,46.17
2023-02-13T21:00:02.847Z,45.22
2023-02-13T21:02:29.245Z,44.64
2023-02-13T21:04:55.648Z,45.18
2023-02-13T21:07:22.038Z,44.51
2023-02-13T21:09:48.459Z,44.39
2023-02-13T21:12:14.842Z,44.05
2023-02-13T21:14:41.231Z,45.05
2023-02-13T21:17:07.620Z,45.03
2023-02-13T21:19:34.011Z,45.54
2023-02-13T21:22:00.447Z,45.87
2023-02-13T21:24:28.240Z,48.50
2023-02-13T21:26:54.626Z,48.09
2023-02-13T21:29:21.000Z,47.14
2023-02-13T21:31:47.492Z,48.22
2023-02-13T21:34:13.970Z,47.80
2023-02-13T21:36:40.394Z,47.06
2023-02-13T21:39:06.748Z,47.33
2023-02-13T21:41:33.143Z,47.54
2023-02-13T21:43:59.535Z,49.16
2023-02-13T21:46:25.944Z,48.94
2023-02-13T21:48:52.340Z,48.94
2023-02-13T21:51:18.747Z,49.47
2023-02-13T21:53:45.209Z,50.26
2023-02-13T21:56:11.632Z,50.24
2023-02-13T21:58:38.038Z,50.34
2023-02-13T22:01:06.233Z,50.45
2023-02-13T22:03:34.005Z,51.54
2023-02-13T22:06:00.369Z,58.33
2023-02-13T22:08:28.145Z,51.27
2023-02-13T22:10:54.545Z,50.43
2023-02-13T22:13:21.030Z,49.89
2023-02-13T22:15:47.449Z,50.43
2023-02-13T22:18:13.857Z,50.24
2023-02-13T22:20:40.307Z,49.63
2023-02-13T22:23:06.733Z,51.17
2023-02-13T22:25:33.147Z,49.84
2023-02-13T22:27:59.535Z,50.13
2023-02-13T22:30:25.975Z,51.20
2023-02-13T22:32:52.387Z,50.29
2023-02-13T22:35:18.783Z,49.76
2023-02-13T22:37:45.292Z,49.97
2023-02-13T22:40:11.678Z,50.19
2023-02-13T22:42:38.090Z,50.15
2023-02-13T22:45:04.478Z,50.49
2023-02-13T22:47:30.878Z,50.53
2023-02-13T22:49:57.277Z,50.17
2023-02-13T22:52:23.650Z,49.74
2023-02-13T22:54:50.020Z,48.79
2023-02-13T22:57:16.464Z,49.38
2023-02-13T22:59:42.848Z,49.76
2023-02-13T23:02:09.368Z,49.75
2023-02-13T23:04:35.836Z,49.93
2023-02-13T23:07:02.252Z,50.37
2023-02-13T23:09:28.636Z,49.94
2023-02-13T23:11:55.017Z,50.18
2023-02-13T23:14:21.442Z,50.15
2023-02-13T23:16:47.826Z,49.83
2023-02-13T23:19:14.260Z,49.19
2023-02-13T23:21:40.657Z,50.24
2023-02-13T23:24:07.044Z,50.51
2023-02-13T23:26:33.477Z,49.36
2023-02-13T23:28:59.867Z,51.68
2023-02-13T23:31:26.360Z,49.76
2023-02-13T23:33:52.796Z,49.89
2023-02-13T23:36:19.172Z,49.39
2023-02-13T23:38:45.670Z,50.14
2023-02-13T23:41:13.999Z,49.96
2023-02-13T23:43:40.415Z,49.38
2023-02-13T23:46:06.871Z,49.11
2023-02-13T23:48:33.365Z,50.01
2023-02-13T23:50:59.963Z,51.43
2023-02-13T23:53:27.836Z,50.77
2023-02-13T23:55:54.318Z,51.10
2023-02-13T23:58:20.706Z,52.56
